createdAt,value
2022-07-30T00:00:03.495Z,17.44
2022-07-30T00:01:03.572Z,17.44
2022-07-30T00:02:03.468Z,17.41
2022-07-30T00:03:03.468Z,17.36
2022-07-30T00:04:03.595Z,17.38
2022-07-30T00:05:03.466Z,17.39
2022-07-30T00:06:04.384Z,17.42
2022-07-30T00:07:03.784Z,17.44
2022-07-30T00:08:03.385Z,17.44
2022-07-30T00:09:03.382Z,17.44
2022-07-30T00:10:03.460Z,17.45
2022-07-30T00:11:03.420Z,17.44
2022-07-30T00:12:03.348Z,17.46
2022-07-30T00:13:03.334Z,17.48
2022-07-30T00:14:03.329Z,17.46
2022-07-30T00:15:03.344Z,17.42
2022-07-30T00:16:03.327Z,17.41
2022-07-30T00:17:03.962Z,17.36
2022-07-30T00:18:03.280Z,17.31
2022-07-30T00:19:03.264Z,17.30
2022-07-30T00:20:03.272Z,17.26
2022-07-30T00:21:03.239Z,17.24
2022-07-30T00:22:03.231Z,17.23
2022-07-30T00:23:03.282Z,17.20
2022-07-30T00:24:03.235Z,17.19
2022-07-30T00:25:03.225Z,17.14
2022-07-30T00:26:03.187Z,17.12
2022-07-30T00:27:03.542Z,17.08
2022-07-30T00:28:03.186Z,17.08
2022-07-30T00:29:03.153Z,17.06
2022-07-30T00:30:03.199Z,17.04
2022-07-30T00:31:03.232Z,17.04
2022-07-30T00:32:03.121Z,17.01
2022-07-30T00:33:03.116Z,16.97
2022-07-30T00:34:03.106Z,16.94
2022-07-30T00:35:03.076Z,16.91
2022-07-30T00:36:03.099Z,16.90
2022-07-30T00:37:03.515Z,16.89
2022-07-30T00:38:03.064Z,16.86
2022-07-30T00:39:03.062Z,16.84
2022-07-30T00:40:03.041Z,16.81
2022-07-30T00:41:03.041Z,16.81
2022-07-30T00:42:03.050Z,16.83
2022-07-30T00:43:03.001Z,16.83
2022-07-30T00:44:02.999Z,16.83
2022-07-30T00:45:02.985Z,16.84
2022-07-30T00:46:03.031Z,16.81
2022-07-30T00:47:03.302Z,16.79
2022-07-30T00:48:03.922Z,16.76
2022-07-30T00:49:02.948Z,16.76
2022-07-30T00:50:02.949Z,16.76
2022-07-30T00:51:02.942Z,16.76
2022-07-30T00:52:02.909Z,16.78
2022-07-30T00:53:02.883Z,16.79
2022-07-30T00:54:02.889Z,16.79
2022-07-30T00:55:02.892Z,16.79
2022-07-30T00:56:02.884Z,16.78
2022-07-30T00:57:03.051Z,16.78
2022-07-30T00:58:02.837Z,16.76
2022-07-30T00:59:02.820Z,16.75
2022-07-30T01:00:02.887Z,16.74
2022-07-30T01:01:02.877Z,16.72
2022-07-30T01:02:02.829Z,16.69
2022-07-30T01:03:02.827Z,16.68
2022-07-30T01:04:02.762Z,16.66
2022-07-30T01:05:02.824Z,16.60
2022-07-30T01:06:02.741Z,16.57
2022-07-30T01:07:03.019Z,16.54
2022-07-30T01:08:02.761Z,16.54
2022-07-30T01:09:02.753Z,16.51
2022-07-30T01:10:02.702Z,16.47
2022-07-30T01:11:02.704Z,16.43
2022-07-30T01:12:02.693Z,16.43
2022-07-30T01:13:02.782Z,16.41
2022-07-30T01:14:02.980Z,16.42
2022-07-30T01:15:02.660Z,16.43
2022-07-30T01:16:02.704Z,16.46
2022-07-30T01:17:03.131Z,16.46
2022-07-30T01:18:02.621Z,16.47
2022-07-30T01:19:02.615Z,16.49
2022-07-30T01:20:02.681Z,16.49
2022-07-30T01:21:02.576Z,16.50
2022-07-30T01:22:02.563Z,16.47
2022-07-30T01:23:02.594Z,16.42
2022-07-30T01:24:02.551Z,16.39
2022-07-30T01:25:02.565Z,16.36
2022-07-30T01:26:02.534Z,16.33
2022-07-30T01:27:03.031Z,16.32
2022-07-30T01:28:02.491Z,16.29
2022-07-30T01:29:02.527Z,16.26
2022-07-30T01:30:02.481Z,16.26
2022-07-30T01:31:02.491Z,16.24
2022-07-30T01:32:02.651Z,16.23
2022-07-30T01:33:02.484Z,16.21
2022-07-30T01:34:02.437Z,16.20
2022-07-30T01:35:02.416Z,16.17
2022-07-30T01:36:02.427Z,16.17
2022-07-30T01:37:02.831Z,16.20
2022-07-30T01:38:02.418Z,16.21
2022-07-30T01:39:02.388Z,16.23
2022-07-30T01:40:02.402Z,16.24
2022-07-30T01:41:02.363Z,16.23
2022-07-30T01:42:02.388Z,16.20
2022-07-30T01:43:02.349Z,16.20
2022-07-30T01:44:02.359Z,16.17
2022-07-30T01:45:02.321Z,16.15
2022-07-30T01:46:02.329Z,16.10
2022-07-30T01:47:02.845Z,16.08
2022-07-30T01:48:02.280Z,16.09
2022-07-30T01:49:02.350Z,16.08
2022-07-30T01:50:02.290Z,16.05
2022-07-30T01:51:02.249Z,16.02
2022-07-30T01:52:02.278Z,16.04
2022-07-30T01:53:02.241Z,16.02
2022-07-30T01:54:02.251Z,16.02
2022-07-30T01:55:02.229Z,16.04
2022-07-30T01:56:02.223Z,16.02
2022-07-30T01:57:02.870Z,16.04
2022-07-30T01:58:02.167Z,16.02
2022-07-30T01:59:02.164Z,16.01
2022-07-30T02:00:02.152Z,16.00
2022-07-30T02:01:02.183Z,16.01
2022-07-30T02:02:02.130Z,16.01
2022-07-30T02:03:02.155Z,16.02
2022-07-30T02:04:02.178Z,16.04
2022-07-30T02:05:02.122Z,16.08
2022-07-30T02:06:02.097Z,16.10
2022-07-30T02:07:02.400Z,16.09
2022-07-30T02:08:02.052Z,16.05
2022-07-30T02:09:02.076Z,16.05
2022-07-30T02:10:03.067Z,16.04
2022-07-30T02:11:02.076Z,16.05
2022-07-30T02:12:02.078Z,16.04
2022-07-30T02:13:02.031Z,16.04
2022-07-30T02:14:02.038Z,16.05
2022-07-30T02:15:01.987Z,16.04
2022-07-30T02:16:02.020Z,16.04
2022-07-30T02:17:02.353Z,16.04
2022-07-30T02:18:01.960Z,16.04
2022-07-30T02:19:01.968Z,16.08
2022-07-30T02:20:03.795Z,16.09
2022-07-30T02:21:07.403Z,16.10
2022-07-30T02:22:01.900Z,16.13
2022-07-30T02:23:01.927Z,16.13
2022-07-30T02:24:01.881Z,16.15
2022-07-30T02:25:01.889Z,16.15
2022-07-30T02:26:01.869Z,16.17
2022-07-30T02:27:02.267Z,16.20
2022-07-30T02:28:01.892Z,16.21
2022-07-30T02:29:01.831Z,16.23
2022-07-30T02:30:01.812Z,16.21
2022-07-30T02:31:01.829Z,16.21
2022-07-30T02:32:01.792Z,16.24
2022-07-30T02:33:01.794Z,16.24
2022-07-30T02:34:01.803Z,16.28
2022-07-30T02:35:01.787Z,16.28
2022-07-30T02:36:01.744Z,16.29
2022-07-30T02:37:02.110Z,16.29
2022-07-30T02:38:01.762Z,16.29
2022-07-30T02:39:01.830Z,16.29
2022-07-30T02:40:01.712Z,16.33
2022-07-30T02:41:01.699Z,16.33
2022-07-30T02:42:01.688Z,16.36
2022-07-30T02:43:01.675Z,16.39
2022-07-30T02:44:01.670Z,16.42
2022-07-30T02:45:01.689Z,16.39
2022-07-30T02:46:01.658Z,16.41
2022-07-30T02:47:04.876Z,16.41
2022-07-30T02:48:01.618Z,16.39
2022-07-30T02:49:01.633Z,16.38
2022-07-30T02:50:01.622Z,16.36
2022-07-30T02:51:01.610Z,16.39
2022-07-30T02:52:01.593Z,16.39
2022-07-30T02:53:01.607Z,16.39
2022-07-30T02:54:01.560Z,16.38
2022-07-30T02:55:01.550Z,16.39
2022-07-30T02:56:01.570Z,16.35
2022-07-30T02:57:01.888Z,16.35
2022-07-30T02:58:01.512Z,16.35
2022-07-30T02:59:01.515Z,16.33
2022-07-30T03:00:01.505Z,16.32
2022-07-30T03:01:01.507Z,16.29
2022-07-30T03:02:01.563Z,16.26
2022-07-30T03:03:01.857Z,16.28
2022-07-30T03:04:01.439Z,16.28
2022-07-30T03:05:01.432Z,16.24
2022-07-30T03:06:01.449Z,16.21
2022-07-30T03:07:06.265Z,16.20
2022-07-30T03:08:02.394Z,16.15
2022-07-30T03:09:01.399Z,16.13
2022-07-30T03:10:01.396Z,16.12
2022-07-30T03:11:01.421Z,16.10
2022-07-30T03:12:01.338Z,16.09
2022-07-30T03:13:01.348Z,16.09
2022-07-30T03:14:01.377Z,16.05
2022-07-30T03:15:01.330Z,16.01
2022-07-30T03:16:01.342Z,16.01
2022-07-30T03:17:01.569Z,16.00
2022-07-30T03:18:01.276Z,16.00
2022-07-30T03:19:01.265Z,15.98
2022-07-30T03:20:01.298Z,15.95
2022-07-30T03:21:01.248Z,15.94
2022-07-30T03:22:01.262Z,15.95
2022-07-30T03:23:01.258Z,15.94
2022-07-30T03:24:01.249Z,15.92
2022-07-30T03:25:01.212Z,15.92
2022-07-30T03:26:01.200Z,15.90
2022-07-30T03:27:01.552Z,15.90
2022-07-30T03:28:01.170Z,15.84
2022-07-30T03:29:01.202Z,15.82
2022-07-30T03:30:01.179Z,15.76
2022-07-30T03:31:01.187Z,15.73
2022-07-30T03:32:01.139Z,15.70
2022-07-30T03:33:01.143Z,15.68
2022-07-30T03:34:01.154Z,15.65
2022-07-30T03:35:05.904Z,15.61
2022-07-30T03:36:02.101Z,15.58
2022-07-30T03:37:01.338Z,15.57
2022-07-30T03:38:01.072Z,15.55
2022-07-30T03:39:01.084Z,15.54
2022-07-30T03:40:01.071Z,15.55
2022-07-30T03:41:01.057Z,15.55
2022-07-30T03:42:01.053Z,15.57
2022-07-30T03:43:01.028Z,15.58
2022-07-30T03:44:01.017Z,15.61
2022-07-30T03:45:00.996Z,15.61
2022-07-30T03:46:01.005Z,15.61
2022-07-30T03:47:01.298Z,15.62
2022-07-30T03:48:00.952Z,15.61
2022-07-30T03:49:00.959Z,15.58
2022-07-30T03:50:00.947Z,15.57
2022-07-30T03:51:00.931Z,15.55
2022-07-30T03:52:00.938Z,15.57
2022-07-30T03:53:00.896Z,15.55
2022-07-30T03:54:00.890Z,15.55
2022-07-30T03:55:01.830Z,15.57
2022-07-30T03:56:00.905Z,15.55
2022-07-30T03:57:01.130Z,15.58
2022-07-30T03:58:00.840Z,15.61
2022-07-30T03:59:00.838Z,15.62
2022-07-30T04:00:00.820Z,15.61
2022-07-30T04:01:01.157Z,15.61
2022-07-30T04:02:05.914Z,15.61
2022-07-30T04:03:01.800Z,15.59
2022-07-30T04:04:00.851Z,15.59
2022-07-30T04:05:00.772Z,15.62
2022-07-30T04:06:00.755Z,15.64
2022-07-30T04:07:01.151Z,15.62
2022-07-30T04:08:00.732Z,15.61
2022-07-30T04:09:00.727Z,15.59
2022-07-30T04:10:00.709Z,15.58
2022-07-30T04:11:00.710Z,15.57
2022-07-30T04:12:00.688Z,15.54
2022-07-30T04:13:00.735Z,15.54
2022-07-30T04:14:00.697Z,15.52
2022-07-30T04:15:00.655Z,15.49
2022-07-30T04:16:05.540Z,15.47
2022-07-30T04:17:01.852Z,15.49
2022-07-30T04:18:00.626Z,15.51
2022-07-30T04:19:00.640Z,15.52
2022-07-30T04:20:01.558Z,15.54
2022-07-30T04:21:00.636Z,15.54
2022-07-30T04:22:00.577Z,15.54
2022-07-30T04:23:00.573Z,15.58
2022-07-30T04:24:01.760Z,15.58
2022-07-30T04:25:00.552Z,15.59
2022-07-30T04:26:00.546Z,15.55
2022-07-30T04:27:00.735Z,15.58
2022-07-30T04:28:03.610Z,15.59
2022-07-30T04:29:00.513Z,15.64
2022-07-30T04:30:00.547Z,15.65
2022-07-30T04:31:00.550Z,15.64
2022-07-30T04:32:01.446Z,15.62
2022-07-30T04:33:00.468Z,15.59
2022-07-30T04:34:02.942Z,15.59
2022-07-30T04:35:00.471Z,15.57
2022-07-30T04:36:00.431Z,15.59
2022-07-30T04:37:21.462Z,15.58
2022-07-30T04:38:00.406Z,15.59
2022-07-30T04:39:00.412Z,15.62
2022-07-30T04:40:00.376Z,15.65
2022-07-30T04:41:00.376Z,15.68
2022-07-30T04:42:00.412Z,15.70
2022-07-30T04:43:00.373Z,15.73
2022-07-30T04:44:00.365Z,15.76
2022-07-30T04:45:00.341Z,15.76
2022-07-30T04:46:00.392Z,15.77
2022-07-30T04:47:00.576Z,15.79
2022-07-30T04:48:00.306Z,15.79
2022-07-30T04:49:00.342Z,15.82
2022-07-30T04:50:00.274Z,15.83
2022-07-30T04:51:00.262Z,15.84
2022-07-30T04:52:00.280Z,15.88
2022-07-30T04:53:00.322Z,15.90
2022-07-30T04:54:00.246Z,15.90
2022-07-30T04:55:00.213Z,15.95
2022-07-30T04:56:00.205Z,15.98
2022-07-30T04:57:00.224Z,16.02
2022-07-30T04:58:00.184Z,16.04
2022-07-30T04:59:00.197Z,16.04
2022-07-30T05:00:00.255Z,16.05
2022-07-30T05:01:00.188Z,16.09
2022-07-30T05:02:00.266Z,16.12
2022-07-30T05:03:00.128Z,16.13
2022-07-30T05:04:00.109Z,16.16
2022-07-30T05:05:00.191Z,16.15
2022-07-30T05:06:00.098Z,16.17
2022-07-30T05:07:00.456Z,16.17
2022-07-30T05:08:00.141Z,16.20
2022-07-30T05:09:00.080Z,16.21
2022-07-30T05:10:00.088Z,16.23
2022-07-30T05:11:00.061Z,16.24
2022-07-30T05:12:00.084Z,16.23
2022-07-30T05:13:00.035Z,16.23
2022-07-30T05:14:00.045Z,16.21
2022-07-30T05:15:00.013Z,16.17
2022-07-30T05:16:00.065Z,16.15
2022-07-30T05:17:00.305Z,16.15
2022-07-30T05:17:59.965Z,16.15
2022-07-30T05:18:59.992Z,16.10
2022-07-30T05:19:59.958Z,16.10
2022-07-30T05:21:00.023Z,16.10
2022-07-30T05:22:03.456Z,16.13
2022-07-30T05:23:00.913Z,16.12
2022-07-30T05:23:59.931Z,16.10
2022-07-30T05:24:59.938Z,16.13
2022-07-30T05:25:59.891Z,16.13
2022-07-30T05:27:00.097Z,16.15
2022-07-30T05:27:59.857Z,16.16
2022-07-30T05:28:59.834Z,16.16
2022-07-30T05:29:59.870Z,16.16
2022-07-30T05:30:59.890Z,16.15
2022-07-30T05:32:03.282Z,16.16
2022-07-30T05:33:01.401Z,16.16
2022-07-30T05:34:03.277Z,16.15
2022-07-30T05:34:59.777Z,16.16
2022-07-30T05:35:59.806Z,16.17
2022-07-30T05:37:00.087Z,16.20
2022-07-30T05:37:59.790Z,16.23
2022-07-30T05:38:59.730Z,16.23
2022-07-30T05:40:02.542Z,16.24
2022-07-30T05:40:59.745Z,16.26
2022-07-30T05:41:59.694Z,16.24
2022-07-30T05:42:59.673Z,16.21
2022-07-30T05:43:59.734Z,16.20
2022-07-30T05:44:59.687Z,16.21
2022-07-30T05:45:59.727Z,16.21
2022-07-30T05:46:59.918Z,16.17
2022-07-30T05:47:59.638Z,16.17
2022-07-30T05:48:59.643Z,16.17
2022-07-30T05:50:04.339Z,16.17
2022-07-30T05:51:00.613Z,16.15
2022-07-30T05:51:59.583Z,16.12
2022-07-30T05:52:59.561Z,16.12
2022-07-30T05:53:59.580Z,16.10
2022-07-30T05:54:59.558Z,16.04
2022-07-30T05:55:59.586Z,16.04
2022-07-30T05:56:59.868Z,16.04
2022-07-30T05:57:59.516Z,16.02
2022-07-30T05:58:59.508Z,16.02
2022-07-30T05:59:59.496Z,16.01
2022-07-30T06:00:59.478Z,16.02
2022-07-30T06:01:59.538Z,16.02
2022-07-30T06:02:59.455Z,16.04
2022-07-30T06:03:59.493Z,16.08
2022-07-30T06:04:59.506Z,16.12
2022-07-30T06:05:59.491Z,16.15
2022-07-30T06:06:59.604Z,16.17
2022-07-30T06:07:59.390Z,16.24
2022-07-30T06:08:59.394Z,16.21
2022-07-30T06:09:59.402Z,16.20
2022-07-30T06:10:59.398Z,16.20
2022-07-30T06:12:00.342Z,16.16
2022-07-30T06:12:59.389Z,16.16
2022-07-30T06:13:59.342Z,16.17
2022-07-30T06:14:59.352Z,16.21
2022-07-30T06:15:59.372Z,16.26
2022-07-30T06:16:59.616Z,16.29
2022-07-30T06:18:02.030Z,16.31
2022-07-30T06:18:59.381Z,16.28
2022-07-30T06:19:59.314Z,16.21
2022-07-30T06:20:59.263Z,16.21
2022-07-30T06:22:05.899Z,16.24
2022-07-30T06:23:00.233Z,16.28
2022-07-30T06:23:59.274Z,16.32
2022-07-30T06:24:59.215Z,16.36
2022-07-30T06:25:59.224Z,16.39
2022-07-30T06:26:59.495Z,16.36
2022-07-30T06:28:06.946Z,16.35
2022-07-30T06:29:00.235Z,16.36
2022-07-30T06:29:59.176Z,16.36
2022-07-30T06:30:59.250Z,16.35
2022-07-30T06:31:59.155Z,16.33
2022-07-30T06:32:59.129Z,16.31
2022-07-30T06:33:59.175Z,16.33
2022-07-30T06:35:04.328Z,16.36
2022-07-30T06:36:00.138Z,16.39
2022-07-30T06:36:59.324Z,16.41
2022-07-30T06:38:06.976Z,16.38
2022-07-30T06:39:00.109Z,16.39
2022-07-30T06:39:59.078Z,16.42
2022-07-30T06:41:02.754Z,16.46
2022-07-30T06:42:00.076Z,16.49
2022-07-30T06:42:59.003Z,16.51
2022-07-30T06:43:59.009Z,16.50
2022-07-30T06:44:58.998Z,16.49
2022-07-30T06:45:59.050Z,16.49
2022-07-30T06:47:01.905Z,16.49
2022-07-30T06:48:00.018Z,16.49
2022-07-30T06:48:59.278Z,16.50
2022-07-30T06:49:58.935Z,16.54
2022-07-30T06:50:58.915Z,16.57
2022-07-30T06:51:58.922Z,16.56
2022-07-30T06:52:58.906Z,16.57
2022-07-30T06:53:58.929Z,16.58
2022-07-30T06:54:58.872Z,16.61
2022-07-30T06:56:00.546Z,16.64
2022-07-30T06:56:59.182Z,16.65
2022-07-30T06:57:58.842Z,16.68
2022-07-30T06:58:58.828Z,16.71
2022-07-30T06:59:58.875Z,16.72
2022-07-30T07:00:58.870Z,16.74
2022-07-30T07:01:58.845Z,16.78
2022-07-30T07:02:58.784Z,16.81
2022-07-30T07:03:58.843Z,16.83
2022-07-30T07:04:58.784Z,16.86
2022-07-30T07:05:58.806Z,16.89
2022-07-30T07:06:58.987Z,16.89
2022-07-30T07:07:59.888Z,16.90
2022-07-30T07:08:58.737Z,16.90
2022-07-30T07:09:58.715Z,16.87
2022-07-30T07:10:58.709Z,16.89
2022-07-30T07:11:58.725Z,16.90
2022-07-30T07:12:58.727Z,16.93
2022-07-30T07:14:02.732Z,16.94
2022-07-30T07:14:59.666Z,17.01
2022-07-30T07:15:58.641Z,17.05
2022-07-30T07:16:58.683Z,17.09
2022-07-30T07:17:58.620Z,17.14
2022-07-30T07:18:58.644Z,17.15
2022-07-30T07:20:01.511Z,17.22
2022-07-30T07:20:58.588Z,17.24
2022-07-30T07:21:58.571Z,17.31
2022-07-30T07:22:58.599Z,17.36
2022-07-30T07:23:58.551Z,17.42
2022-07-30T07:24:58.551Z,17.46
2022-07-30T07:25:58.566Z,17.54
2022-07-30T07:26:58.760Z,17.64
2022-07-30T07:28:11.142Z,17.72
2022-07-30T07:29:03.389Z,17.79
2022-07-30T07:30:01.552Z,17.86
2022-07-30T07:30:59.556Z,17.94
2022-07-30T07:32:06.962Z,18.03
2022-07-30T07:32:59.459Z,18.11
2022-07-30T07:33:58.495Z,18.19
2022-07-30T07:34:58.475Z,18.25
2022-07-30T07:35:58.444Z,18.33
2022-07-30T07:36:58.526Z,18.37
2022-07-30T07:37:58.692Z,18.44
2022-07-30T07:38:59.701Z,18.50
2022-07-30T07:39:58.676Z,18.53
2022-07-30T07:41:00.137Z,18.56
2022-07-30T07:41:58.640Z,18.59
2022-07-30T07:42:58.348Z,18.55
2022-07-30T07:43:58.357Z,18.52
2022-07-30T07:44:58.318Z,18.52
2022-07-30T07:45:58.344Z,18.53
2022-07-30T07:46:58.607Z,18.55
2022-07-30T07:47:58.293Z,18.56
2022-07-30T07:48:58.330Z,18.59
2022-07-30T07:49:58.311Z,18.62
2022-07-30T07:51:00.376Z,18.66
2022-07-30T07:51:58.261Z,18.73
2022-07-30T07:52:58.245Z,18.78
2022-07-30T07:54:18.986Z,18.86
2022-07-30T07:54:59.220Z,18.93
2022-07-30T07:55:58.235Z,18.99
2022-07-30T07:56:58.435Z,19.08
2022-07-30T07:57:58.204Z,19.12
2022-07-30T07:58:58.190Z,19.16
2022-07-30T07:59:58.182Z,19.18
2022-07-30T08:00:58.196Z,19.19
2022-07-30T08:01:58.182Z,19.19
2022-07-30T08:02:59.144Z,19.19
2022-07-30T08:03:58.114Z,19.18
2022-07-30T08:04:58.136Z,19.16
2022-07-30T08:06:06.300Z,19.16
2022-07-30T08:06:59.347Z,19.19
2022-07-30T08:07:58.116Z,19.22
2022-07-30T08:08:58.069Z,19.26
2022-07-30T08:09:58.452Z,19.29
2022-07-30T08:10:58.045Z,19.33
2022-07-30T08:11:58.051Z,19.39
2022-07-30T08:12:58.299Z,19.45
2022-07-30T08:13:58.085Z,19.52
2022-07-30T08:14:58.008Z,19.55
2022-07-30T08:15:58.097Z,19.66
2022-07-30T09:36:55.466Z,21.15
2022-07-30T09:37:55.393Z,21.14
2022-07-30T09:38:55.387Z,21.12
2022-07-30T09:39:59.306Z,21.14
2022-07-30T09:40:57.662Z,21.20
2022-07-30T09:41:55.357Z,21.24
2022-07-30T09:42:55.367Z,21.24
2022-07-30T09:43:55.338Z,21.25
2022-07-30T09:44:55.304Z,21.25
2022-07-30T09:45:57.129Z,21.27
2022-07-30T09:46:55.315Z,21.25
2022-07-30T09:47:55.265Z,21.25
2022-07-30T09:48:55.359Z,21.30
2022-07-30T09:49:55.283Z,21.37
2022-07-30T09:50:55.240Z,21.43
2022-07-30T09:51:57.017Z,21.51
2022-07-30T09:52:55.249Z,21.58
2022-07-30T09:53:55.239Z,21.72
2022-07-30T09:54:55.240Z,21.88
2022-07-30T09:55:55.198Z,21.99
2022-07-30T09:56:55.198Z,22.08
2022-07-30T09:57:56.571Z,22.15
2022-07-30T09:58:55.160Z,22.22
2022-07-30T09:59:55.179Z,22.30
2022-07-30T10:02:00.579Z,22.29
2022-07-30T10:02:56.123Z,22.32
2022-07-30T10:03:55.091Z,22.32
2022-07-30T10:04:55.081Z,22.33
2022-07-30T10:05:55.094Z,22.38
2022-07-30T10:06:55.052Z,22.45
2022-07-30T10:07:55.067Z,22.51
2022-07-30T10:08:55.034Z,22.53
2022-07-30T10:09:55.056Z,22.55
2022-07-30T10:10:55.075Z,22.59
2022-07-30T10:11:55.018Z,22.54
2022-07-30T10:12:55.006Z,22.50
2022-07-30T10:13:54.985Z,22.41
2022-07-30T10:14:55.006Z,22.36
2022-07-30T10:15:54.975Z,22.33
2022-07-30T10:16:54.984Z,22.32
2022-07-30T10:17:54.952Z,22.25
2022-07-30T10:18:54.933Z,22.15
2022-07-30T10:19:54.937Z,22.06
2022-07-30T10:20:54.902Z,22.04
2022-07-30T10:21:54.917Z,22.08
2022-07-30T10:22:54.924Z,22.18
2022-07-30T10:23:54.894Z,22.30
2022-07-30T10:24:54.891Z,22.33
2022-07-30T10:25:55.638Z,22.33
2022-07-30T10:26:54.844Z,22.35
2022-07-30T10:27:57.124Z,22.38
2022-07-30T10:28:54.820Z,22.43
2022-07-30T10:29:54.814Z,22.50
2022-07-30T10:30:55.057Z,22.55
2022-07-30T10:31:54.853Z,22.62
2022-07-30T10:32:54.786Z,22.66
2022-07-30T10:33:54.764Z,22.62
2022-07-30T10:34:54.780Z,22.62
2022-07-30T10:35:54.757Z,22.62
2022-07-30T10:36:54.773Z,22.63
2022-07-30T10:37:54.737Z,22.62
2022-07-30T10:39:07.911Z,22.66
2022-07-30T10:39:54.714Z,22.78
2022-07-30T10:40:54.747Z,22.88
2022-07-30T10:41:54.716Z,22.98
2022-07-30T10:42:54.677Z,23.02
2022-07-30T10:43:54.717Z,23.09
2022-07-30T10:44:54.731Z,23.12
2022-07-30T10:45:54.666Z,23.06
2022-07-30T10:46:54.636Z,22.96
2022-07-30T10:47:54.646Z,22.84
2022-07-30T10:48:54.657Z,22.81
2022-07-30T10:49:54.747Z,22.85
2022-07-30T10:50:54.672Z,22.90
2022-07-30T10:51:54.578Z,22.90
2022-07-30T10:52:54.582Z,22.88
2022-07-30T10:53:54.560Z,22.80
2022-07-30T10:54:54.561Z,22.75
2022-07-30T10:55:54.550Z,22.75
2022-07-30T10:56:54.550Z,22.84
2022-07-30T10:57:54.517Z,22.98
2022-07-30T10:58:54.521Z,23.08
2022-07-30T10:59:54.491Z,23.17
2022-07-30T11:00:54.524Z,23.28
2022-07-30T11:01:54.482Z,23.34
2022-07-30T11:02:54.533Z,23.27
2022-07-30T11:03:54.451Z,23.25
2022-07-30T11:04:54.439Z,23.31
2022-07-30T11:05:54.436Z,23.34
2022-07-30T11:06:54.533Z,23.34
2022-07-30T11:12:05.729Z,23.34
2022-07-30T11:12:43.871Z,23.36
2022-07-30T11:13:41.430Z,23.40
2022-07-30T11:14:41.409Z,23.41
2022-07-30T11:15:41.430Z,23.44
2022-07-30T11:16:42.356Z,23.39
2022-07-30T11:17:41.391Z,23.31
2022-07-30T11:18:41.373Z,23.28
2022-07-30T11:19:55.122Z,23.25
2022-07-30T11:20:43.326Z,23.31
2022-07-30T11:21:42.342Z,23.41
2022-07-30T11:22:41.343Z,23.55
2022-07-30T11:23:41.343Z,23.66
2022-07-30T11:24:41.310Z,23.76
2022-07-30T11:25:50.059Z,23.83
2022-07-30T11:26:42.319Z,23.83
2022-07-30T11:27:41.850Z,23.74
2022-07-30T11:28:41.256Z,23.71
2022-07-30T11:29:50.904Z,23.68
2022-07-30T11:30:42.271Z,23.74
2022-07-30T11:32:07.567Z,23.77
2022-07-30T11:32:42.220Z,23.80
2022-07-30T11:33:41.246Z,23.77
2022-07-30T11:34:41.193Z,23.71
2022-07-30T11:35:41.218Z,23.71
2022-07-30T11:36:41.174Z,23.63
2022-07-30T11:37:42.167Z,23.54
2022-07-30T11:38:42.171Z,23.46
2022-07-30T11:39:41.268Z,23.40
2022-07-30T11:40:41.122Z,23.40
2022-07-30T11:41:41.159Z,23.40
2022-07-30T11:42:41.094Z,23.37
2022-07-30T11:43:41.089Z,23.34
2022-07-30T11:44:41.089Z,23.37
2022-07-30T11:45:41.110Z,23.32
2022-07-30T11:46:41.073Z,23.36
2022-07-30T11:47:41.062Z,23.37
2022-07-30T11:48:41.115Z,23.39
2022-07-30T11:49:41.143Z,23.43
2022-07-30T11:50:41.032Z,23.47
2022-07-30T11:51:41.005Z,23.48
2022-07-30T11:52:41.001Z,23.54
2022-07-30T11:53:41.036Z,23.59
2022-07-30T11:54:41.053Z,23.65
2022-07-30T11:55:40.987Z,23.76
2022-07-30T11:56:40.969Z,23.84
2022-07-30T11:57:40.960Z,23.96
2022-07-30T11:58:40.931Z,24.08
2022-07-30T11:59:40.934Z,24.18
2022-07-30T12:00:40.952Z,24.28
2022-07-30T12:01:40.900Z,24.30
2022-07-30T12:02:40.956Z,24.28
2022-07-30T12:03:40.961Z,24.24
2022-07-30T12:04:40.857Z,24.24
2022-07-30T12:05:40.871Z,24.23
2022-07-30T12:06:40.839Z,24.30
2022-07-30T12:07:40.899Z,24.35
2022-07-30T12:08:40.819Z,24.33
2022-07-30T12:09:40.849Z,24.21
2022-07-30T12:10:40.791Z,24.13
2022-07-30T12:11:40.793Z,24.08
2022-07-30T12:12:40.783Z,24.11
2022-07-30T12:13:45.409Z,24.17
2022-07-30T12:14:41.807Z,24.23
2022-07-30T12:15:40.753Z,24.23
2022-07-30T12:16:40.728Z,24.23
2022-07-30T12:17:40.732Z,24.20
2022-07-30T12:18:40.752Z,24.23
2022-07-30T12:19:47.533Z,24.24
2022-07-30T12:20:41.689Z,24.32
2022-07-30T12:21:40.715Z,24.40
2022-07-30T12:22:40.682Z,24.51
2022-07-30T12:23:40.677Z,24.61
2022-07-30T12:24:40.684Z,24.68
2022-07-30T12:25:40.664Z,24.70
2022-07-30T12:26:41.665Z,24.78
2022-07-30T12:27:40.652Z,24.84
2022-07-30T12:28:40.603Z,24.86
2022-07-30T12:29:40.634Z,24.95
2022-07-30T12:30:40.587Z,24.96
2022-07-30T12:31:40.590Z,24.91
2022-07-30T12:32:40.562Z,24.76
2022-07-30T12:33:42.226Z,24.70
2022-07-30T12:34:40.560Z,24.70
2022-07-30T12:35:40.543Z,24.68
2022-07-30T12:36:40.511Z,24.70
2022-07-30T12:37:40.691Z,24.85
2022-07-30T12:38:40.492Z,25.04
2022-07-30T12:39:40.672Z,25.16
2022-07-30T12:40:40.482Z,25.32
2022-07-30T12:41:40.473Z,25.55
2022-07-30T12:42:40.491Z,25.85
2022-07-30T12:43:40.460Z,26.23
2022-07-30T12:44:40.469Z,26.51
2022-07-30T12:45:50.506Z,26.74
2022-07-30T12:46:41.425Z,26.85
2022-07-30T12:47:40.455Z,26.84
2022-07-30T12:48:40.499Z,26.78
2022-07-30T12:49:49.387Z,26.71
2022-07-30T12:50:41.397Z,26.74
2022-07-30T12:51:40.375Z,26.85
2022-07-30T12:52:40.349Z,27.03
2022-07-30T12:53:40.374Z,27.17
2022-07-30T12:54:40.462Z,27.22
2022-07-30T12:55:40.357Z,27.35
2022-07-30T12:56:40.340Z,27.35
2022-07-30T12:57:40.295Z,27.44
2022-07-30T12:58:40.286Z,27.52
2022-07-30T12:59:40.361Z,27.44
2022-07-30T13:00:40.321Z,27.39
2022-07-30T13:01:40.347Z,27.39
2022-07-30T13:02:40.292Z,27.48
2022-07-30T13:03:40.312Z,27.63
2022-07-30T13:04:40.249Z,27.86
2022-07-30T13:05:41.251Z,28.12
2022-07-30T13:06:40.203Z,28.11
2022-07-30T13:07:40.180Z,28.11
2022-07-30T13:08:40.235Z,28.00
2022-07-30T13:09:40.163Z,27.98
2022-07-30T13:10:40.160Z,28.01
2022-07-30T13:11:40.174Z,28.08
2022-07-30T13:12:40.153Z,28.11
2022-07-30T13:13:40.169Z,28.14
2022-07-30T13:14:40.146Z,28.23
2022-07-30T13:15:40.123Z,28.51
2022-07-30T13:16:41.114Z,28.85
2022-07-30T13:17:40.115Z,29.12
2022-07-30T13:18:40.074Z,29.04
2022-07-30T13:19:40.289Z,28.88
2022-07-30T13:20:40.065Z,28.69
2022-07-30T13:21:40.032Z,28.76
2022-07-30T13:22:41.031Z,28.96
2022-07-30T13:23:40.021Z,29.29
2022-07-30T13:24:40.041Z,29.63
2022-07-30T13:25:40.420Z,29.95
2022-07-30T13:26:39.988Z,29.98
2022-07-30T13:27:39.998Z,29.98
2022-07-30T13:28:39.952Z,30.05
2022-07-30T13:29:39.952Z,30.16
2022-07-30T13:30:39.963Z,30.28
2022-07-30T13:31:42.524Z,30.44
2022-07-30T13:32:39.942Z,30.57
2022-07-30T13:33:39.922Z,30.59
2022-07-30T13:34:39.909Z,30.34
2022-07-30T13:35:39.895Z,30.39
2022-07-30T13:36:39.897Z,30.51
2022-07-30T13:37:39.910Z,30.55
2022-07-30T13:38:39.876Z,30.12
2022-07-30T13:39:39.859Z,29.56
2022-07-30T13:40:39.837Z,28.98
2022-07-30T13:41:39.839Z,28.63
2022-07-30T13:42:39.839Z,28.22
2022-07-30T13:43:39.839Z,27.71
2022-07-30T13:44:39.802Z,27.33
2022-07-30T13:45:39.801Z,27.15
2022-07-30T13:46:41.390Z,27.00
2022-07-30T13:47:39.770Z,26.88
2022-07-30T13:48:39.816Z,26.81
2022-07-30T13:49:39.757Z,26.84
2022-07-30T13:50:39.743Z,26.92
2022-07-30T13:51:39.733Z,26.92
2022-07-30T13:52:39.734Z,26.83
2022-07-30T13:53:39.746Z,26.60
2022-07-30T13:54:39.704Z,26.58
2022-07-30T13:55:39.695Z,26.52
2022-07-30T13:56:40.541Z,26.52
2022-07-30T13:57:39.665Z,26.52
2022-07-30T13:58:40.679Z,26.55
2022-07-30T13:59:39.653Z,26.62
2022-07-30T14:00:39.650Z,26.70
2022-07-30T14:01:39.721Z,26.71
2022-07-30T14:02:39.638Z,26.71
2022-07-30T14:03:39.611Z,26.65
2022-07-30T14:04:39.634Z,26.62
2022-07-30T14:05:42.371Z,26.62
2022-07-30T14:06:39.573Z,26.66
2022-07-30T14:07:39.563Z,26.75
2022-07-30T14:08:39.567Z,26.78
2022-07-30T14:09:47.049Z,26.77
2022-07-30T14:10:40.564Z,26.62
2022-07-30T14:11:39.521Z,26.48
2022-07-30T14:12:39.523Z,26.45
2022-07-30T14:13:39.504Z,26.45
2022-07-30T14:14:39.514Z,26.43
2022-07-30T14:15:39.536Z,26.44
2022-07-30T14:16:46.577Z,26.47